Air Resources Laboratory banner image
Air Resources Laboratory web site National Oceanic and Atmospheric Administration (NOAA)

al metar


K79J 180356Z AUTO 00000KT 10SM CLR 26/23 A3014 RMK AO2 SLP200 T02560233=
KANB 180353Z AUTO 00000KT 10SM BKN021 25/22 A3011 RMK AO2 SLP187 T02500222=
KAUO 180356Z AUTO 18004KT 10SM BKN004 23/23 A3016 RMK AO2 RAE0259 SLP221 P0000
 T02280228=
KBFM 180353Z AUTO 18004KT 10SM CLR 27/24 A3012 RMK AO2 SLP199 T02720244=
KBHM 180353Z 20007KT 10SM SCT070 24/22 A3012 RMK AO2 SLP190 T02390222=
KDCU 180353Z AUTO 19005KT 10SM OVC090 23/23 A3007 RMK AO2 RAE22 SLP175 P0001
 T02330228=
KDHN 180353Z AUTO 20004KT 10SM CLR 25/23 A3017 RMK AO2 SLP212 T02500228=
KEET 180353Z AUTO 17006KT 10SM FEW023 24/22 A3011 RMK AO2 SLP189 T02390217=
KGAD 180356Z AUTO 00000KT 10SM CLR 23/23 A3010 RMK AO2 RAE0258 SLP191 P0000
 T02280228=
KHSV 180353Z 18004KT 10SM FEW080 BKN100 24/24 A3007 RMK AO2 RAB12E41 SLP173
 T02390239 PNO $=
KLOR 180358Z AUTO 00000KT 10SM FEW250 24/23 A3014 RMK AO2 SLP187 T02370228=
KMGM 180353Z 00000KT 10SM CLR 24/23 A3012 RMK AO2 SLP197 T02440233=
KMOB 180356Z 18003KT 10SM CLR 26/24 A3012 RMK AO2 SLP197 T02560239=
KMSL 180353Z AUTO 00000KT 10SM FEW004 BKN013 24/23 A3006 RMK AO2 SLP172
 T02440233=
KMXF 180356Z AUTO 00000KT 10SM CLR 24/23 A3011 RMK AO2 SLP197 T02410234 $=
KOZR 180356Z AUTO 19003KT 10SM CLR 25/24 A3014 RMK AO2 SLP206 T02470236 $=
KSXS 180358Z AUTO 22003KT 10SM SCT240 24/23 A3014 RMK AO2 SLP205 T02430231=
KTCL 180353Z AUTO 16010KT 10SM OVC023 25/23 A3007 RMK AO2 SLP180 T02500228=
KTOI 180353Z AUTO 16003KT 10SM CLR 23/23 A3014 RMK AO2 SLP200 T02280228=